sensor_id;sensor_type;location;lat;lon;timestamp;temperature;humidity
8965;DHT22;4517;49.020;12.066;2022-11-15T00:00:27;2.30;99.90
8965;DHT22;4517;49.020;12.066;2022-11-15T00:02:53;2.40;99.90
8965;DHT22;4517;49.020;12.066;2022-11-15T00:05:19;2.30;99.90
8965;DHT22;4517;49.020;12.066;2022-11-15T00:07:44;2.30;99.90
8965;DHT22;4517;49.020;12.066;2022-11-15T00:10:10;2.20;99.90
8965;DHT22;4517;49.020;12.066;2022-11-15T00:12:36;2.10;99.90
8965;DHT22;4517;49.020;12.066;2022-11-15T00:15:01;2.00;99.90
8965;DHT22;4517;49.020;12.066;2022-11-15T00:17:27;2.00;99.90
8965;DHT22;4517;49.020;12.066;2022-11-15T00:19:52;1.90;99.90
8965;DHT22;4517;49.020;12.066;2022-11-15T00:22:18;1.90;99.90
8965;DHT22;4517;49.020;12.066;2022-11-15T00:24:43;2.00;99.90
8965;DHT22;4517;49.020;12.066;2022-11-15T00:27:09;2.00;99.90
8965;DHT22;4517;49.020;12.066;2022-11-15T00:29:35;2.10;99.90
8965;DHT22;4517;49.020;12.066;2022-11-15T00:32:02;2.10;99.90
8965;DHT22;4517;49.020;12.066;2022-11-15T00:34:28;2.00;99.90
8965;DHT22;4517;49.020;12.066;2022-11-15T00:36:53;2.00;99.90
8965;DHT22;4517;49.020;12.066;2022-11-15T00:39:19;1.90;99.90
8965;DHT22;4517;49.020;12.066;2022-11-15T00:41:44;1.90;99.90
8965;DHT22;4517;49.020;12.066;2022-11-15T00:44:10;1.90;99.90
8965;DHT22;4517;49.020;12.066;2022-11-15T00:46:35;1.80;99.90
8965;DHT22;4517;49.020;12.066;2022-11-15T00:49:01;1.70;99.90
8965;DHT22;4517;49.020;12.066;2022-11-15T00:51:26;1.70;99.90
8965;DHT22;4517;49.020;12.066;2022-11-15T00:53:52;1.70;99.90
8965;DHT22;4517;49.020;12.066;2022-11-15T00:56:18;1.70;99.90
8965;DHT22;4517;49.020;12.066;2022-11-15T00:58:44;1.60;99.90
8965;DHT22;4517;49.020;12.066;2022-11-15T01:01:12;1.70;99.90
8965;DHT22;4517;49.020;12.066;2022-11-15T01:03:39;1.60;99.90
8965;DHT22;4517;49.020;12.066;2022-11-15T01:06:06;1.60;99.90
8965;DHT22;4517;49.020;12.066;2022-11-15T01:08:32;1.50;99.90
8965;DHT22;4517;49.020;12.066;2022-11-15T01:11:02;1.60;99.90
8965;DHT22;4517;49.020;12.066;2022-11-15T01:13:31;1.60;99.90
8965;DHT22;4517;49.020;12.066;2022-11-15T01:15:57;1.60;99.90
8965;DHT22;4517;49.020;12.066;2022-11-15T01:18:22;1.60;99.90
8965;DHT22;4517;49.020;12.066;2022-11-15T01:20:48;1.60;99.90
8965;DHT22;4517;49.020;12.066;2022-11-15T01:23:14;1.60;99.90
8965;DHT22;4517;49.020;12.066;2022-11-15T01:25:39;1.50;99.90
8965;DHT22;4517;49.020;12.066;2022-11-15T01:28:05;1.50;99.90
8965;DHT22;4517;49.020;12.066;2022-11-15T01:30:31;1.40;99.90
8965;DHT22;4517;49.020;12.066;2022-11-15T01:32:56;1.40;99.90
8965;DHT22;4517;49.020;12.066;2022-11-15T01:35:22;1.40;99.90
8965;DHT22;4517;49.020;12.066;2022-11-15T01:37:47;1.30;99.90
8965;DHT22;4517;49.020;12.066;2022-11-15T01:40:13;1.30;99.90
8965;DHT22;4517;49.020;12.066;2022-11-15T01:42:38;1.30;99.90
8965;DHT22;4517;49.020;12.066;2022-11-15T01:45:04;1.30;99.90
8965;DHT22;4517;49.020;12.066;2022-11-15T01:47:40;1.40;99.90
8965;DHT22;4517;49.020;12.066;2022-11-15T01:50:12;1.30;99.90
8965;DHT22;4517;49.020;12.066;2022-11-15T01:52:39;1.30;99.90
8965;DHT22;4517;49.020;12.066;2022-11-15T01:55:12;1.30;99.90
8965;DHT22;4517;49.020;12.066;2022-11-15T01:57:40;1.30;99.90
8965;DHT22;4517;49.020;12.066;2022-11-15T02:00:08;1.30;99.90
8965;DHT22;4517;49.020;12.066;2022-11-15T02:02:36;1.30;99.90
8965;DHT22;4517;49.020;12.066;2022-11-15T02:05:02;1.40;99.90
8965;DHT22;4517;49.020;12.066;2022-11-15T02:07:29;1.40;99.90
8965;DHT22;4517;49.020;12.066;2022-11-15T02:09:58;1.40;99.90
8965;DHT22;4517;49.020;12.066;2022-11-15T02:12:25;1.40;99.90
8965;DHT22;4517;49.020;12.066;2022-11-15T02:14:53;1.40;99.90
8965;DHT22;4517;49.020;12.066;2022-11-15T02:23:05;1.30;99.90
8965;DHT22;4517;49.020;12.066;2022-11-15T02:25:57;1.30;99.90
8965;DHT22;4517;49.020;12.066;2022-11-15T02:29:10;1.20;99.90
8965;DHT22;4517;49.020;12.066;2022-11-15T02:32:18;1.20;99.90
8965;DHT22;4517;49.020;12.066;2022-11-15T02:37:56;1.10;99.90
8965;DHT22;4517;49.020;12.066;2022-11-15T02:43:13;1.10;99.90
8965;DHT22;4517;49.020;12.066;2022-11-15T02:46:18;1.10;99.90
8965;DHT22;4517;49.020;12.066;2022-11-15T02:48:49;1.10;99.90
8965;DHT22;4517;49.020;12.066;2022-11-15T02:51:16;1.00;99.90
8965;DHT22;4517;49.020;12.066;2022-11-15T02:53:42;1.00;99.90
8965;DHT22;4517;49.020;12.066;2022-11-15T02:56:08;1.00;99.90
8965;DHT22;4517;49.020;12.066;2022-11-15T02:58:42;1.10;99.90
8965;DHT22;4517;49.020;12.066;2022-11-15T03:04:49;1.00;99.90
8965;DHT22;4517;49.020;12.066;2022-11-15T03:07:38;1.10;99.90
8965;DHT22;4517;49.020;12.066;2022-11-15T03:10:20;1.00;99.90
8965;DHT22;4517;49.020;12.066;2022-11-15T03:12:57;1.00;99.90
8965;DHT22;4517;49.020;12.066;2022-11-15T03:15:36;0.90;99.90
8965;DHT22;4517;49.020;12.066;2022-11-15T03:20:35;0.90;99.90
8965;DHT22;4517;49.020;12.066;2022-11-15T03:23:05;0.80;99.90
8965;DHT22;4517;49.020;12.066;2022-11-15T03:25:33;0.80;99.90
8965;DHT22;4517;49.020;12.066;2022-11-15T03:28:03;0.80;99.90
8965;DHT22;4517;49.020;12.066;2022-11-15T03:30:32;0.80;99.90
8965;DHT22;4517;49.020;12.066;2022-11-15T03:33:02;0.70;99.90
8965;DHT22;4517;49.020;12.066;2022-11-15T03:35:32;0.70;99.90
8965;DHT22;4517;49.020;12.066;2022-11-15T03:38:13;0.70;99.90
8965;DHT22;4517;49.020;12.066;2022-11-15T03:40:42;0.70;99.90
8965;DHT22;4517;49.020;12.066;2022-11-15T03:43:29;0.70;99.90
8965;DHT22;4517;49.020;12.066;2022-11-15T03:46:06;0.70;99.90
8965;DHT22;4517;49.020;12.066;2022-11-15T03:48:54;0.80;99.90
8965;DHT22;4517;49.020;12.066;2022-11-15T03:51:22;0.70;99.90
8965;DHT22;4517;49.020;12.066;2022-11-15T03:53:48;0.70;99.90
8965;DHT22;4517;49.020;12.066;2022-11-15T03:56:13;0.70;99.90
8965;DHT22;4517;49.020;12.066;2022-11-15T03:58:39;0.70;99.90
8965;DHT22;4517;49.020;12.066;2022-11-15T04:01:04;0.70;99.90
8965;DHT22;4517;49.020;12.066;2022-11-15T04:03:30;0.60;99.90
8965;DHT22;4517;49.020;12.066;2022-11-15T04:05:56;0.70;99.90
8965;DHT22;4517;49.020;12.066;2022-11-15T04:08:21;0.70;99.90
8965;DHT22;4517;49.020;12.066;2022-11-15T04:10:49;0.70;99.90
8965;DHT22;4517;49.020;12.066;2022-11-15T04:13:14;0.60;99.90
8965;DHT22;4517;49.020;12.066;2022-11-15T04:15:40;0.60;99.90
8965;DHT22;4517;49.020;12.066;2022-11-15T04:18:05;0.60;99.90
8965;DHT22;4517;49.020;12.066;2022-11-15T04:20:31;0.50;99.90
8965;DHT22;4517;49.020;12.066;2022-11-15T04:23:35;0.50;99.90
8965;DHT22;4517;49.020;12.066;2022-11-15T04:26:21;0.70;99.90
8965;DHT22;4517;49.020;12.066;2022-11-15T04:28:47;0.70;99.90
8965;DHT22;4517;49.020;12.066;2022-11-15T04:31:31;0.70;99.90
8965;DHT22;4517;49.020;12.066;2022-11-15T04:33:56;0.60;99.90
8965;DHT22;4517;49.020;12.066;2022-11-15T04:36:22;0.60;99.90
8965;DHT22;4517;49.020;12.066;2022-11-15T04:39:06;0.70;99.90
8965;DHT22;4517;49.020;12.066;2022-11-15T04:41:32;1.10;99.90
8965;DHT22;4517;49.020;12.066;2022-11-15T04:43:58;1.20;99.90
8965;DHT22;4517;49.020;12.066;2022-11-15T04:46:24;1.10;99.90
8965;DHT22;4517;49.020;12.066;2022-11-15T04:48:50;1.10;99.90
8965;DHT22;4517;49.020;12.066;2022-11-15T04:51:16;1.10;99.90
8965;DHT22;4517;49.020;12.066;2022-11-15T04:53:42;1.10;99.90
8965;DHT22;4517;49.020;12.066;2022-11-15T04:56:08;1.10;99.90
8965;DHT22;4517;49.020;12.066;2022-11-15T04:58:33;1.00;99.90
8965;DHT22;4517;49.020;12.066;2022-11-15T05:01:10;1.00;99.90
8965;DHT22;4517;49.020;12.066;2022-11-15T05:03:37;1.10;99.90
8965;DHT22;4517;49.020;12.066;2022-11-15T05:06:41;1.20;99.90
8965;DHT22;4517;49.020;12.066;2022-11-15T05:09:06;1.40;99.90
8965;DHT22;4517;49.020;12.066;2022-11-15T05:11:32;1.30;99.90
8965;DHT22;4517;49.020;12.066;2022-11-15T05:13:57;1.30;99.90
8965;DHT22;4517;49.020;12.066;2022-11-15T05:16:23;1.30;99.90
8965;DHT22;4517;49.020;12.066;2022-11-15T05:18:52;1.20;99.90
8965;DHT22;4517;49.020;12.066;2022-11-15T05:21:18;1.20;99.90
8965;DHT22;4517;49.020;12.066;2022-11-15T05:23:44;1.20;99.90
8965;DHT22;4517;49.020;12.066;2022-11-15T05:26:10;1.20;99.90
8965;DHT22;4517;49.020;12.066;2022-11-15T05:28:36;1.10;99.90
8965;DHT22;4517;49.020;12.066;2022-11-15T05:31:07;1.10;99.90
8965;DHT22;4517;49.020;12.066;2022-11-15T05:33:34;1.00;99.90
8965;DHT22;4517;49.020;12.066;2022-11-15T05:36:05;0.90;99.90
8965;DHT22;4517;49.020;12.066;2022-11-15T05:38:32;0.80;99.90
8965;DHT22;4517;49.020;12.066;2022-11-15T05:40:59;0.90;99.90
8965;DHT22;4517;49.020;12.066;2022-11-15T05:43:25;0.90;99.90
8965;DHT22;4517;49.020;12.066;2022-11-15T05:45:51;0.90;99.90
8965;DHT22;4517;49.020;12.066;2022-11-15T05:48:17;0.80;99.90
8965;DHT22;4517;49.020;12.066;2022-11-15T05:50:45;0.70;99.90
8965;DHT22;4517;49.020;12.066;2022-11-15T05:53:13;0.90;99.90
8965;DHT22;4517;49.020;12.066;2022-11-15T05:55:39;1.00;99.90
8965;DHT22;4517;49.020;12.066;2022-11-15T05:58:06;1.00;99.90
8965;DHT22;4517;49.020;12.066;2022-11-15T06:00:32;1.00;99.90
8965;DHT22;4517;49.020;12.066;2022-11-15T06:02:58;0.90;99.90
8965;DHT22;4517;49.020;12.066;2022-11-15T06:05:23;0.80;99.90
8965;DHT22;4517;49.020;12.066;2022-11-15T06:07:49;0.70;99.90
8965;DHT22;4517;49.020;12.066;2022-11-15T06:10:14;0.70;99.90
8965;DHT22;4517;49.020;12.066;2022-11-15T06:12:40;0.60;99.90
8965;DHT22;4517;49.020;12.066;2022-11-15T06:15:06;0.50;99.90
8965;DHT22;4517;49.020;12.066;2022-11-15T06:17:31;0.50;99.90
8965;DHT22;4517;49.020;12.066;2022-11-15T06:19:57;0.50;99.90
8965;DHT22;4517;49.020;12.066;2022-11-15T06:22:22;0.70;99.90
8965;DHT22;4517;49.020;12.066;2022-11-15T06:24:48;0.60;99.90
8965;DHT22;4517;49.020;12.066;2022-11-15T06:27:14;0.70;99.90
8965;DHT22;4517;49.020;12.066;2022-11-15T06:29:39;0.70;99.90
8965;DHT22;4517;49.020;12.066;2022-11-15T06:32:05;0.60;99.90
8965;DHT22;4517;49.020;12.066;2022-11-15T06:34:30;0.70;99.90
8965;DHT22;4517;49.020;12.066;2022-11-15T06:36:56;0.60;99.90
8965;DHT22;4517;49.020;12.066;2022-11-15T06:39:22;0.60;99.90
8965;DHT22;4517;49.020;12.066;2022-11-15T06:41:47;0.60;99.90
8965;DHT22;4517;49.020;12.066;2022-11-15T06:44:14;0.60;99.90
8965;DHT22;4517;49.020;12.066;2022-11-15T06:46:39;0.60;99.90
8965;DHT22;4517;49.020;12.066;2022-11-15T06:49:05;0.60;99.90
8965;DHT22;4517;49.020;12.066;2022-11-15T06:51:30;0.80;99.90
8965;DHT22;4517;49.020;12.066;2022-11-15T06:53:56;0.80;99.90
8965;DHT22;4517;49.020;12.066;2022-11-15T06:56:21;0.90;99.90
8965;DHT22;4517;49.020;12.066;2022-11-15T06:58:47;0.90;99.90
8965;DHT22;4517;49.020;12.066;2022-11-15T07:01:13;1.00;99.90
8965;DHT22;4517;49.020;12.066;2022-11-15T07:03:40;1.40;99.90
8965;DHT22;4517;49.020;12.066;2022-11-15T07:06:07;1.60;99.90
8965;DHT22;4517;49.020;12.066;2022-11-15T07:08:34;1.80;99.90
8965;DHT22;4517;49.020;12.066;2022-11-15T07:11:02;1.80;99.90
8965;DHT22;4517;49.020;12.066;2022-11-15T07:13:29;1.90;99.90
8965;DHT22;4517;49.020;12.066;2022-11-15T07:16:01;1.80;99.90
8965;DHT22;4517;49.020;12.066;2022-11-15T07:18:27;1.90;99.90
8965;DHT22;4517;49.020;12.066;2022-11-15T07:20:53;1.80;99.90
8965;DHT22;4517;49.020;12.066;2022-11-15T07:23:18;1.80;99.90
8965;DHT22;4517;49.020;12.066;2022-11-15T07:25:44;1.80;99.90
8965;DHT22;4517;49.020;12.066;2022-11-15T07:28:09;1.90;99.90
8965;DHT22;4517;49.020;12.066;2022-11-15T07:30:35;1.90;99.90
8965;DHT22;4517;49.020;12.066;2022-11-15T07:33:00;2.00;99.90
8965;DHT22;4517;49.020;12.066;2022-11-15T07:35:27;2.10;99.90
8965;DHT22;4517;49.020;12.066;2022-11-15T07:37:58;2.20;99.90
8965;DHT22;4517;49.020;12.066;2022-11-15T07:40:28;2.30;99.90
8965;DHT22;4517;49.020;12.066;2022-11-15T07:43:05;2.40;99.90
8965;DHT22;4517;49.020;12.066;2022-11-15T07:45:31;2.40;99.90
8965;DHT22;4517;49.020;12.066;2022-11-15T07:47:59;2.50;99.90
8965;DHT22;4517;49.020;12.066;2022-11-15T07:50:25;2.60;99.90
8965;DHT22;4517;49.020;12.066;2022-11-15T07:52:56;2.70;99.90
8965;DHT22;4517;49.020;12.066;2022-11-15T07:55:23;2.80;99.90
8965;DHT22;4517;49.020;12.066;2022-11-15T07:57:49;3.00;99.90
8965;DHT22;4517;49.020;12.066;2022-11-15T08:00:15;3.10;99.90
8965;DHT22;4517;49.020;12.066;2022-11-15T08:02:42;3.20;99.90
8965;DHT22;4517;49.020;12.066;2022-11-15T08:05:08;3.30;99.90
8965;DHT22;4517;49.020;12.066;2022-11-15T08:07:33;3.50;99.90
8965;DHT22;4517;49.020;12.066;2022-11-15T08:10:00;3.50;99.90
8965;DHT22;4517;49.020;12.066;2022-11-15T08:12:27;3.60;99.90
8965;DHT22;4517;49.020;12.066;2022-11-15T08:14:54;3.70;99.90
8965;DHT22;4517;49.020;12.066;2022-11-15T08:17:21;3.70;99.90
8965;DHT22;4517;49.020;12.066;2022-11-15T08:19:47;3.70;99.90
8965;DHT22;4517;49.020;12.066;2022-11-15T08:22:13;3.70;99.90
8965;DHT22;4517;49.020;12.066;2022-11-15T08:24:39;3.80;99.90
8965;DHT22;4517;49.020;12.066;2022-11-15T08:27:05;3.80;99.90
8965;DHT22;4517;49.020;12.066;2022-11-15T08:29:30;3.80;99.90
8965;DHT22;4517;49.020;12.066;2022-11-15T08:31:56;3.90;99.90
8965;DHT22;4517;49.020;12.066;2022-11-15T08:34:22;3.90;99.90
8965;DHT22;4517;49.020;12.066;2022-11-15T08:36:47;4.00;99.90
8965;DHT22;4517;49.020;12.066;2022-11-15T08:39:13;4.10;99.90
8965;DHT22;4517;49.020;12.066;2022-11-15T08:41:39;4.20;99.90
8965;DHT22;4517;49.020;12.066;2022-11-15T08:44:04;4.20;99.90
8965;DHT22;4517;49.020;12.066;2022-11-15T08:46:30;4.40;99.90
8965;DHT22;4517;49.020;12.066;2022-11-15T08:48:56;4.50;99.90
8965;DHT22;4517;49.020;12.066;2022-11-15T08:51:21;4.60;99.90
8965;DHT22;4517;49.020;12.066;2022-11-15T08:53:47;4.70;99.90
8965;DHT22;4517;49.020;12.066;2022-11-15T08:56:14;4.80;99.90
8965;DHT22;4517;49.020;12.066;2022-11-15T08:58:40;4.90;99.90
8965;DHT22;4517;49.020;12.066;2022-11-15T09:01:16;5.00;99.90
8965;DHT22;4517;49.020;12.066;2022-11-15T09:03:42;5.00;99.90
8965;DHT22;4517;49.020;12.066;2022-11-15T09:06:07;5.10;99.90
8965;DHT22;4517;49.020;12.066;2022-11-15T09:08:33;5.30;99.90
8965;DHT22;4517;49.020;12.066;2022-11-15T09:11:03;5.40;99.90
8965;DHT22;4517;49.020;12.066;2022-11-15T09:13:29;5.40;99.90
8965;DHT22;4517;49.020;12.066;2022-11-15T09:15:58;5.50;99.90
8965;DHT22;4517;49.020;12.066;2022-11-15T09:18:24;5.60;99.90
8965;DHT22;4517;49.020;12.066;2022-11-15T09:20:50;5.60;99.90
8965;DHT22;4517;49.020;12.066;2022-11-15T09:23:15;5.70;99.90
8965;DHT22;4517;49.020;12.066;2022-11-15T09:25:41;5.80;99.90
8965;DHT22;4517;49.020;12.066;2022-11-15T09:28:07;6.00;99.90
8965;DHT22;4517;49.020;12.066;2022-11-15T09:30:33;6.00;99.90
8965;DHT22;4517;49.020;12.066;2022-11-15T09:32:58;6.10;99.90
8965;DHT22;4517;49.020;12.066;2022-11-15T09:35:24;6.10;99.90
8965;DHT22;4517;49.020;12.066;2022-11-15T09:37:49;6.20;99.90
8965;DHT22;4517;49.020;12.066;2022-11-15T09:40:16;6.30;99.90
8965;DHT22;4517;49.020;12.066;2022-11-15T09:43:02;6.30;99.90
8965;DHT22;4517;49.020;12.066;2022-11-15T09:45:46;6.30;99.90
8965;DHT22;4517;49.020;12.066;2022-11-15T09:48:33;6.30;99.90
8965;DHT22;4517;49.020;12.066;2022-11-15T09:51:03;6.40;99.90
8965;DHT22;4517;49.020;12.066;2022-11-15T09:53:47;6.50;99.90
8965;DHT22;4517;49.020;12.066;2022-11-15T09:56:28;6.50;99.90
8965;DHT22;4517;49.020;12.066;2022-11-15T09:59:07;6.60;99.90
8965;DHT22;4517;49.020;12.066;2022-11-15T10:04:30;6.80;99.90
8965;DHT22;4517;49.020;12.066;2022-11-15T10:07:15;6.90;99.90
8965;DHT22;4517;49.020;12.066;2022-11-15T10:10:22;7.00;99.90
8965;DHT22;4517;49.020;12.066;2022-11-15T10:12:50;7.10;99.90
8965;DHT22;4517;49.020;12.066;2022-11-15T10:15:18;7.10;99.90
8965;DHT22;4517;49.020;12.066;2022-11-15T10:18:16;7.20;99.90
8965;DHT22;4517;49.020;12.066;2022-11-15T10:20:49;7.30;99.90
8965;DHT22;4517;49.020;12.066;2022-11-15T10:23:18;7.40;99.90
8965;DHT22;4517;49.020;12.066;2022-11-15T10:25:44;7.60;99.90
8965;DHT22;4517;49.020;12.066;2022-11-15T10:30:41;7.70;99.90
8965;DHT22;4517;49.020;12.066;2022-11-15T10:33:37;7.80;99.90
8965;DHT22;4517;49.020;12.066;2022-11-15T10:46:48;8.30;99.90
8965;DHT22;4517;49.020;12.066;2022-11-15T10:49:22;8.40;99.90
8965;DHT22;4517;49.020;12.066;2022-11-15T10:51:57;8.60;99.90
8965;DHT22;4517;49.020;12.066;2022-11-15T10:54:42;8.70;99.90
8965;DHT22;4517;49.020;12.066;2022-11-15T10:57:26;8.80;99.90
8965;DHT22;4517;49.020;12.066;2022-11-15T10:59:56;8.90;99.90
8965;DHT22;4517;49.020;12.066;2022-11-15T11:04:57;9.00;99.90
8965;DHT22;4517;49.020;12.066;2022-11-15T11:07:28;9.00;99.90
8965;DHT22;4517;49.020;12.066;2022-11-15T11:10:00;9.10;99.90
8965;DHT22;4517;49.020;12.066;2022-11-15T11:12:31;9.10;99.90
8965;DHT22;4517;49.020;12.066;2022-11-15T11:14:59;9.20;99.90
8965;DHT22;4517;49.020;12.066;2022-11-15T11:20:34;9.40;99.90
8965;DHT22;4517;49.020;12.066;2022-11-15T11:26:14;9.50;99.90
8965;DHT22;4517;49.020;12.066;2022-11-15T11:28:49;9.70;99.90
8965;DHT22;4517;49.020;12.066;2022-11-15T11:34:21;9.90;99.90
8965;DHT22;4517;49.020;12.066;2022-11-15T11:37:03;10.00;99.90
8965;DHT22;4517;49.020;12.066;2022-11-15T11:39:56;10.10;99.90
8965;DHT22;4517;49.020;12.066;2022-11-15T11:48:29;10.20;99.90
8965;DHT22;4517;49.020;12.066;2022-11-15T11:51:05;10.30;99.90
8965;DHT22;4517;49.020;12.066;2022-11-15T11:53:45;10.40;99.90
8965;DHT22;4517;49.020;12.066;2022-11-15T11:56:29;10.40;99.90
8965;DHT22;4517;49.020;12.066;2022-11-15T11:59:00;10.50;99.90
8965;DHT22;4517;49.020;12.066;2022-11-15T12:01:32;10.60;99.90
8965;DHT22;4517;49.020;12.066;2022-11-15T12:04:20;10.60;99.90
8965;DHT22;4517;49.020;12.066;2022-11-15T12:09:29;10.70;99.90
8965;DHT22;4517;49.020;12.066;2022-11-15T12:15:10;10.80;99.90
8965;DHT22;4517;49.020;12.066;2022-11-15T12:17:40;10.80;99.90
8965;DHT22;4517;49.020;12.066;2022-11-15T12:20:27;10.90;99.90
8965;DHT22;4517;49.020;12.066;2022-11-15T12:22:59;10.90;99.90
8965;DHT22;4517;49.020;12.066;2022-11-15T12:25:53;11.00;99.90
8965;DHT22;4517;49.020;12.066;2022-11-15T12:31:23;11.00;99.90
8965;DHT22;4517;49.020;12.066;2022-11-15T12:33:49;11.10;99.90
8965;DHT22;4517;49.020;12.066;2022-11-15T12:38:58;11.20;99.90
8965;DHT22;4517;49.020;12.066;2022-11-15T12:41:29;11.20;99.90
8965;DHT22;4517;49.020;12.066;2022-11-15T12:43:55;11.30;99.90
8965;DHT22;4517;49.020;12.066;2022-11-15T12:49:00;11.40;99.90
8965;DHT22;4517;49.020;12.066;2022-11-15T12:59:59;11.60;99.90
8965;DHT22;4517;49.020;12.066;2022-11-15T13:02:41;11.60;99.90
8965;DHT22;4517;49.020;12.066;2022-11-15T13:17:47;11.50;99.90
8965;DHT22;4517;49.020;12.066;2022-11-15T13:28:00;11.30;99.90
8965;DHT22;4517;49.020;12.066;2022-11-15T13:30:30;11.30;99.90
8965;DHT22;4517;49.020;12.066;2022-11-15T13:33:13;11.30;99.90
8965;DHT22;4517;49.020;12.066;2022-11-15T13:35:40;11.30;99.90
8965;DHT22;4517;49.020;12.066;2022-11-15T13:38:33;11.40;99.90
8965;DHT22;4517;49.020;12.066;2022-11-15T13:41:11;11.30;99.90
8965;DHT22;4517;49.020;12.066;2022-11-15T13:43:37;11.40;99.90
8965;DHT22;4517;49.020;12.066;2022-11-15T13:48:33;11.30;99.90
8965;DHT22;4517;49.020;12.066;2022-11-15T13:51:00;11.30;99.90
8965;DHT22;4517;49.020;12.066;2022-11-15T13:53:26;11.40;99.90
8965;DHT22;4517;49.020;12.066;2022-11-15T13:55:54;11.40;99.90
8965;DHT22;4517;49.020;12.066;2022-11-15T13:58:20;11.40;99.90
8965;DHT22;4517;49.020;12.066;2022-11-15T14:00:46;11.40;99.90
8965;DHT22;4517;49.020;12.066;2022-11-15T14:03:18;11.40;99.90
8965;DHT22;4517;49.020;12.066;2022-11-15T14:06:01;11.50;99.90
8965;DHT22;4517;49.020;12.066;2022-11-15T14:08:28;11.40;99.90
8965;DHT22;4517;49.020;12.066;2022-11-15T14:11:18;11.40;99.90
8965;DHT22;4517;49.020;12.066;2022-11-15T14:16:37;11.40;99.90
8965;DHT22;4517;49.020;12.066;2022-11-15T14:19:05;11.40;99.90
8965;DHT22;4517;49.020;12.066;2022-11-15T14:21:31;11.30;99.90
8965;DHT22;4517;49.020;12.066;2022-11-15T14:24:20;11.40;99.90
8965;DHT22;4517;49.020;12.066;2022-11-15T14:26:46;11.30;99.90
8965;DHT22;4517;49.020;12.066;2022-11-15T14:29:28;11.30;99.90
8965;DHT22;4517;49.020;12.066;2022-11-15T14:32:11;11.30;99.90
8965;DHT22;4517;49.020;12.066;2022-11-15T14:34:37;11.20;99.90
8965;DHT22;4517;49.020;12.066;2022-11-15T14:37:03;11.30;99.90
8965;DHT22;4517;49.020;12.066;2022-11-15T14:39:28;11.40;99.90
8965;DHT22;4517;49.020;12.066;2022-11-15T14:41:54;11.40;99.90
8965;DHT22;4517;49.020;12.066;2022-11-15T14:44:19;11.30;99.90
8965;DHT22;4517;49.020;12.066;2022-11-15T14:46:48;11.30;99.90
8965;DHT22;4517;49.020;12.066;2022-11-15T14:49:13;11.20;99.90
8965;DHT22;4517;49.020;12.066;2022-11-15T14:51:40;11.10;99.90
8965;DHT22;4517;49.020;12.066;2022-11-15T14:54:10;11.00;99.90
8965;DHT22;4517;49.020;12.066;2022-11-15T14:56:35;10.90;99.90
8965;DHT22;4517;49.020;12.066;2022-11-15T14:59:10;10.80;99.90
8965;DHT22;4517;49.020;12.066;2022-11-15T15:01:38;10.70;99.90
8965;DHT22;4517;49.020;12.066;2022-11-15T15:04:03;10.80;99.90
8965;DHT22;4517;49.020;12.066;2022-11-15T15:06:44;10.70;99.90
8965;DHT22;4517;49.020;12.066;2022-11-15T15:09:10;10.60;99.90
8965;DHT22;4517;49.020;12.066;2022-11-15T15:11:35;10.40;99.90
8965;DHT22;4517;49.020;12.066;2022-11-15T15:14:01;10.20;99.90
8965;DHT22;4517;49.020;12.066;2022-11-15T15:16:28;10.20;99.90
8965;DHT22;4517;49.020;12.066;2022-11-15T15:18:55;10.10;99.90
8965;DHT22;4517;49.020;12.066;2022-11-15T15:21:24;10.00;99.90
8965;DHT22;4517;49.020;12.066;2022-11-15T15:23:52;9.70;99.90
8965;DHT22;4517;49.020;12.066;2022-11-15T15:26:19;9.50;99.90
8965;DHT22;4517;49.020;12.066;2022-11-15T15:28:45;9.40;99.90
8965;DHT22;4517;49.020;12.066;2022-11-15T15:31:14;9.20;99.90
8965;DHT22;4517;49.020;12.066;2022-11-15T15:33:39;9.10;99.90
8965;DHT22;4517;49.020;12.066;2022-11-15T15:36:12;8.90;99.90
8965;DHT22;4517;49.020;12.066;2022-11-15T15:38:38;8.70;99.90
8965;DHT22;4517;49.020;12.066;2022-11-15T15:41:13;8.50;99.90
8965;DHT22;4517;49.020;12.066;2022-11-15T15:43:39;8.40;99.90
8965;DHT22;4517;49.020;12.066;2022-11-15T15:46:11;8.30;99.90
8965;DHT22;4517;49.020;12.066;2022-11-15T15:48:37;8.20;99.90
8965;DHT22;4517;49.020;12.066;2022-11-15T15:51:05;8.20;99.90
8965;DHT22;4517;49.020;12.066;2022-11-15T15:53:31;8.00;99.90
8965;DHT22;4517;49.020;12.066;2022-11-15T15:55:57;8.00;99.90
8965;DHT22;4517;49.020;12.066;2022-11-15T15:58:22;8.00;99.90
8965;DHT22;4517;49.020;12.066;2022-11-15T16:00:48;7.80;99.90
8965;DHT22;4517;49.020;12.066;2022-11-15T16:03:13;7.60;99.90
8965;DHT22;4517;49.020;12.066;2022-11-15T16:05:39;7.40;99.90
8965;DHT22;4517;49.020;12.066;2022-11-15T16:08:05;7.30;99.90
8965;DHT22;4517;49.020;12.066;2022-11-15T16:10:32;7.10;99.90
8965;DHT22;4517;49.020;12.066;2022-11-15T16:13:02;7.00;99.90
8965;DHT22;4517;49.020;12.066;2022-11-15T16:15:30;6.80;99.90
8965;DHT22;4517;49.020;12.066;2022-11-15T16:17:58;6.80;99.90
8965;DHT22;4517;49.020;12.066;2022-11-15T16:20:39;6.70;99.90
8965;DHT22;4517;49.020;12.066;2022-11-15T16:23:12;6.90;99.90
8965;DHT22;4517;49.020;12.066;2022-11-15T16:25:56;7.10;99.90
8965;DHT22;4517;49.020;12.066;2022-11-15T16:28:29;7.20;99.90
8965;DHT22;4517;49.020;12.066;2022-11-15T16:31:00;7.40;99.90
8965;DHT22;4517;49.020;12.066;2022-11-15T16:33:26;7.50;99.90
8965;DHT22;4517;49.020;12.066;2022-11-15T16:35:52;7.40;99.90
8965;DHT22;4517;49.020;12.066;2022-11-15T16:38:17;7.20;99.90
8965;DHT22;4517;49.020;12.066;2022-11-15T16:40:43;7.00;99.90
8965;DHT22;4517;49.020;12.066;2022-11-15T16:43:09;6.70;99.90
8965;DHT22;4517;49.020;12.066;2022-11-15T16:45:35;6.60;99.90
8965;DHT22;4517;49.020;12.066;2022-11-15T16:48:01;6.40;99.90
8965;DHT22;4517;49.020;12.066;2022-11-15T16:50:29;6.30;99.90
8965;DHT22;4517;49.020;12.066;2022-11-15T16:52:56;6.10;99.90
8965;DHT22;4517;49.020;12.066;2022-11-15T16:55:24;6.00;99.90
8965;DHT22;4517;49.020;12.066;2022-11-15T16:57:50;5.90;99.90
8965;DHT22;4517;49.020;12.066;2022-11-15T17:00:17;5.90;99.90
8965;DHT22;4517;49.020;12.066;2022-11-15T17:02:44;6.00;99.90
8965;DHT22;4517;49.020;12.066;2022-11-15T17:05:10;6.10;99.90
8965;DHT22;4517;49.020;12.066;2022-11-15T17:07:37;6.10;99.90
8965;DHT22;4517;49.020;12.066;2022-11-15T17:10:03;6.00;99.90
8965;DHT22;4517;49.020;12.066;2022-11-15T17:12:28;5.90;99.90
8965;DHT22;4517;49.020;12.066;2022-11-15T17:14:55;5.90;99.90
8965;DHT22;4517;49.020;12.066;2022-11-15T17:17:21;5.80;99.90
8965;DHT22;4517;49.020;12.066;2022-11-15T17:19:47;5.60;99.90
8965;DHT22;4517;49.020;12.066;2022-11-15T17:22:12;5.60;99.90
8965;DHT22;4517;49.020;12.066;2022-11-15T17:24:38;5.50;99.90
8965;DHT22;4517;49.020;12.066;2022-11-15T17:27:03;5.40;99.90
8965;DHT22;4517;49.020;12.066;2022-11-15T17:29:29;5.40;99.90
8965;DHT22;4517;49.020;12.066;2022-11-15T17:31:55;5.40;99.90
8965;DHT22;4517;49.020;12.066;2022-11-15T17:34:20;5.30;99.90
8965;DHT22;4517;49.020;12.066;2022-11-15T17:36:47;5.30;99.90
8965;DHT22;4517;49.020;12.066;2022-11-15T17:39:13;5.40;99.90
8965;DHT22;4517;49.020;12.066;2022-11-15T17:41:38;5.40;99.90
8965;DHT22;4517;49.020;12.066;2022-11-15T17:44:04;5.30;99.90
8965;DHT22;4517;49.020;12.066;2022-11-15T17:46:30;5.10;99.90
8965;DHT22;4517;49.020;12.066;2022-11-15T17:48:56;5.10;99.90
8965;DHT22;4517;49.020;12.066;2022-11-15T17:51:22;5.00;99.90
8965;DHT22;4517;49.020;12.066;2022-11-15T17:53:48;5.00;99.90